createdAt,value
2018-06-15T00:01:08.684Z,92.10
2018-06-15T00:03:37.941Z,92.70
2018-06-15T00:06:07.218Z,92.50
2018-06-15T00:08:36.517Z,92.40
2018-06-15T00:11:05.860Z,92.50
2018-06-15T00:13:35.082Z,92.60
2018-06-15T00:16:04.331Z,92.80
2018-06-15T00:18:33.666Z,92.40
2018-06-15T00:21:02.956Z,92.60
2018-06-15T00:23:32.366Z,92.40
2018-06-15T00:26:01.656Z,93.10
2018-06-15T00:28:30.966Z,92.60
2018-06-15T00:31:00.304Z,92.60
2018-06-15T00:33:29.533Z,92.70
2018-06-15T00:35:58.819Z,92.70
2018-06-15T00:38:28.063Z,93.20
2018-06-15T00:40:57.314Z,92.70
2018-06-15T00:43:26.550Z,92.80
2018-06-15T00:45:55.815Z,92.90
2018-06-15T00:48:25.051Z,92.70
2018-06-15T00:50:54.619Z,92.90
2018-06-15T00:53:23.895Z,92.90
2018-06-15T00:55:53.146Z,93.00
2018-06-15T00:58:22.447Z,93.10
2018-06-15T01:00:51.736Z,93.20
2018-06-15T01:03:21.047Z,93.10
2018-06-15T01:05:50.301Z,93.20
2018-06-15T01:08:19.560Z,93.30
2018-06-15T01:10:48.822Z,93.50
2018-06-15T01:13:18.113Z,93.30
2018-06-15T01:15:47.597Z,93.40
2018-06-15T01:18:17.758Z,93.90
2018-06-15T01:20:47.036Z,93.80
2018-06-15T01:23:16.256Z,93.90
2018-06-15T01:25:45.515Z,94.10
2018-06-15T01:28:14.818Z,94.00
2018-06-15T01:30:44.085Z,94.10
2018-06-15T01:33:13.344Z,94.30
2018-06-15T01:35:42.671Z,94.20
2018-06-15T01:38:11.918Z,94.40
2018-06-15T01:40:41.132Z,94.60
2018-06-15T01:43:10.489Z,94.60
2018-06-15T01:48:08.677Z,94.70
2018-06-15T01:50:37.959Z,94.80
2018-06-15T01:53:08.118Z,95.00
2018-06-15T01:55:37.439Z,95.00
2018-06-15T01:58:06.681Z,94.90
2018-06-15T02:00:35.944Z,95.20
2018-06-15T02:03:05.213Z,95.10
2018-06-15T02:05:34.430Z,95.40
2018-06-15T02:08:03.725Z,95.30
2018-06-15T02:10:33.060Z,95.30
2018-06-15T02:13:02.312Z,95.20
2018-06-15T02:15:31.569Z,95.20
2018-06-15T02:18:00.914Z,95.30
2018-06-15T02:20:30.188Z,95.60
2018-06-15T02:22:59.458Z,95.40
2018-06-15T02:25:28.748Z,95.60
2018-06-15T02:27:57.990Z,95.70
2018-06-15T02:30:27.314Z,95.40
2018-06-15T02:32:56.597Z,95.40
2018-06-15T02:35:25.955Z,95.30
2018-06-15T02:37:55.180Z,95.40
2018-06-15T02:40:24.446Z,95.50
2018-06-15T02:42:53.728Z,95.60
2018-06-15T02:45:23.070Z,95.40
2018-06-15T02:47:52.349Z,95.40
2018-06-15T02:50:28.419Z,95.50
2018-06-15T02:52:57.814Z,95.40
2018-06-15T02:55:27.134Z,95.40
2018-06-15T02:57:56.413Z,95.50
2018-06-15T03:00:25.898Z,95.50
2018-06-15T03:02:55.204Z,95.50
2018-06-15T03:05:24.573Z,95.50
2018-06-15T03:07:53.855Z,95.30
2018-06-15T03:10:23.169Z,95.40
2018-06-15T03:12:52.455Z,95.30
2018-06-15T03:15:21.905Z,95.20
2018-06-15T03:17:51.286Z,95.10
2018-06-15T03:20:20.646Z,95.40
2018-06-15T03:22:50.094Z,95.20
2018-06-15T03:25:19.476Z,95.40
2018-06-15T03:27:48.845Z,95.40
2018-06-15T03:30:18.113Z,95.40
2018-06-15T03:32:47.395Z,95.40
2018-06-15T03:35:16.788Z,95.20
2018-06-15T03:37:46.257Z,95.30
2018-06-15T03:40:15.529Z,95.10
2018-06-15T03:42:44.925Z,95.20
2018-06-15T03:45:15.150Z,95.20
2018-06-15T03:47:44.445Z,95.10
2018-06-15T03:50:13.837Z,95.00
2018-06-15T03:52:43.284Z,95.10
2018-06-15T03:55:12.638Z,95.10
2018-06-15T03:57:41.995Z,94.80
2018-06-15T04:00:11.385Z,94.90
2018-06-15T04:02:40.754Z,95.10
2018-06-15T04:05:10.052Z,95.00
2018-06-15T04:07:48.016Z,94.90
2018-06-15T04:13:36.979Z,95.00
2018-06-15T04:16:22.053Z,94.80
2018-06-15T04:18:51.767Z,94.90
2018-06-15T04:21:21.271Z,94.80
2018-06-15T04:23:50.568Z,94.70
2018-06-15T04:26:19.767Z,94.70
2018-06-15T04:28:49.132Z,94.70
2018-06-15T04:31:18.425Z,94.50
2018-06-15T04:33:47.729Z,94.40
2018-06-15T04:36:16.953Z,94.40
2018-06-15T04:38:46.326Z,94.20
2018-06-15T04:41:15.571Z,94.20
2018-06-15T04:43:44.871Z,94.00
2018-06-15T04:46:14.160Z,93.90
2018-06-15T04:48:43.406Z,93.70
2018-06-15T04:51:12.762Z,93.60
2018-06-15T04:53:42.584Z,93.60
2018-06-15T04:56:11.883Z,93.40
2018-06-15T04:58:41.192Z,93.40
2018-06-15T05:01:10.488Z,93.20
2018-06-15T05:03:39.776Z,93.20
2018-06-15T05:06:09.050Z,93.00
2018-06-15T05:08:38.434Z,92.90
2018-06-15T05:11:08.022Z,92.80
2018-06-15T05:13:37.289Z,92.60
2018-06-15T05:16:06.709Z,92.50
2018-06-15T05:18:35.984Z,92.40
2018-06-15T05:21:05.366Z,92.40
2018-06-15T05:23:34.717Z,92.30
2018-06-15T05:26:04.017Z,92.20
2018-06-15T05:28:33.427Z,92.20
2018-06-15T05:31:02.895Z,92.10
2018-06-15T05:33:32.379Z,92.00
2018-06-15T05:39:53.484Z,91.60
2018-06-15T05:46:14.498Z,91.40
2018-06-15T05:52:01.407Z,91.10
2018-06-15T06:02:14.397Z,90.80
2018-06-15T06:04:54.145Z,90.60
2018-06-15T06:15:24.592Z,89.40
2018-06-15T06:17:54.117Z,88.90
2018-06-15T06:20:23.555Z,87.60
2018-06-15T06:22:52.868Z,86.50
2018-06-15T06:25:22.239Z,85.50
2018-06-15T06:27:51.702Z,84.70
2018-06-15T06:30:20.967Z,83.70
2018-06-15T06:32:50.257Z,83.40
2018-06-15T06:35:19.711Z,81.70
2018-06-15T06:37:49.039Z,81.80
2018-06-15T06:42:47.440Z,81.30
2018-06-15T06:45:16.799Z,81.20
2018-06-15T06:47:46.127Z,80.60
2018-06-15T06:50:15.507Z,80.30
2018-06-15T06:52:44.854Z,79.90
2018-06-15T06:57:43.075Z,78.60
2018-06-15T07:00:13.201Z,77.10
2018-06-15T07:02:42.482Z,77.20
2018-06-15T07:05:11.932Z,77.00
2018-06-15T07:07:41.691Z,77.30
2018-06-15T07:10:11.116Z,77.50
2018-06-15T07:12:40.667Z,76.70
2018-06-15T07:15:10.070Z,76.00
2018-06-15T07:17:39.361Z,74.60
2018-06-15T07:20:08.773Z,74.50
2018-06-15T07:22:38.208Z,73.10
2018-06-15T07:25:07.642Z,71.00
2018-06-15T07:27:37.023Z,69.70
2018-06-15T07:30:06.521Z,67.90
2018-06-15T07:32:35.864Z,69.20
2018-06-15T07:35:05.219Z,66.80
2018-06-15T07:37:34.755Z,61.80
2018-06-15T07:40:04.157Z,56.20
2018-06-15T07:42:33.535Z,54.00
2018-06-15T07:45:02.956Z,50.60
2018-06-15T07:47:32.355Z,52.00
2018-06-15T07:50:02.130Z,50.60
2018-06-15T07:52:31.582Z,51.30
2018-06-15T07:55:00.898Z,52.20
2018-06-15T07:57:50.462Z,53.30
2018-06-15T08:00:40.466Z,54.00
2018-06-15T08:03:20.402Z,53.30
2018-06-15T08:12:04.916Z,47.00
2018-06-15T08:14:39.791Z,47.60
2018-06-15T08:17:09.048Z,44.20
2018-06-15T08:19:38.553Z,42.00
2018-06-15T08:22:07.911Z,42.90
2018-06-15T08:24:37.259Z,42.70
2018-06-15T08:27:06.851Z,43.30
2018-06-15T08:35:55.819Z,44.60
2018-06-15T08:39:59.051Z,46.80
2018-06-15T08:42:38.151Z,47.00
2018-06-15T08:45:11.239Z,44.70
2018-06-15T08:50:41.990Z,43.80
2018-06-15T08:56:29.758Z,42.30
2018-06-15T08:59:07.322Z,42.10
2018-06-15T09:01:48.656Z,41.10
2018-06-15T09:04:26.114Z,36.90
2018-06-15T09:09:25.933Z,34.10
2018-06-15T09:11:55.363Z,32.00
2018-06-15T09:14:24.761Z,32.80
2018-06-15T09:16:54.024Z,32.30
2018-06-15T09:19:23.367Z,32.60
2018-06-15T09:21:59.335Z,33.70
2018-06-15T09:24:28.751Z,33.60
2018-06-15T09:26:58.038Z,33.80
2018-06-15T09:29:34.008Z,32.20
2018-06-15T09:32:03.416Z,31.60
2018-06-15T09:34:32.907Z,31.60
2018-06-15T09:37:02.263Z,31.80
2018-06-15T09:39:31.698Z,29.50
2018-06-15T09:42:01.114Z,30.00
2018-06-15T09:44:30.429Z,30.10
2018-06-15T09:46:59.907Z,30.00
2018-06-15T09:49:29.224Z,29.90
2018-06-15T09:51:58.717Z,30.70
2018-06-15T09:54:28.141Z,32.40
2018-06-15T09:56:57.611Z,33.90
2018-06-15T09:59:26.903Z,33.90
2018-06-15T10:01:56.671Z,33.50
2018-06-15T10:04:26.050Z,34.30
2018-06-15T10:06:55.401Z,34.10
2018-06-15T10:09:24.685Z,34.20
2018-06-15T10:11:54.187Z,33.70
2018-06-15T10:14:23.512Z,33.80
2018-06-15T10:16:52.817Z,32.30
2018-06-15T10:19:22.206Z,31.80
2018-06-15T10:21:51.760Z,30.50
2018-06-15T10:24:21.082Z,28.10
2018-06-15T10:26:50.433Z,27.70
2018-06-15T10:29:19.846Z,28.30
2018-06-15T10:31:49.355Z,29.40
2018-06-15T10:34:18.704Z,30.40
2018-06-15T10:36:48.039Z,31.20
2018-06-15T10:39:17.370Z,32.30
2018-06-15T10:41:46.809Z,33.80
2018-06-15T10:44:16.126Z,35.20
2018-06-15T10:46:45.521Z,33.80
2018-06-15T10:49:14.930Z,32.60
2018-06-15T10:51:44.530Z,33.20
2018-06-15T10:54:13.803Z,33.90
2018-06-15T10:56:43.122Z,30.80
2018-06-15T10:59:12.535Z,29.90
2018-06-15T11:01:41.896Z,29.70
2018-06-15T11:04:11.404Z,28.70
2018-06-15T11:06:40.800Z,27.60
2018-06-15T11:09:10.268Z,28.00
2018-06-15T11:11:39.732Z,28.10
2018-06-15T11:14:10.033Z,28.50
2018-06-15T11:16:55.088Z,29.20
2018-06-15T11:20:41.248Z,30.00
2018-06-15T11:23:10.491Z,31.00
2018-06-15T11:25:39.836Z,31.70
2018-06-15T11:28:09.225Z,33.00
2018-06-15T11:30:38.544Z,32.40
2018-06-15T11:33:07.855Z,30.60
2018-06-15T11:35:37.180Z,27.90
2018-06-15T11:38:06.463Z,26.40
2018-06-15T11:40:35.815Z,26.50
2018-06-15T11:43:05.135Z,27.00
2018-06-15T11:45:34.537Z,27.40
2018-06-15T11:48:03.823Z,28.20
2018-06-15T11:50:33.130Z,28.90
2018-06-15T11:53:02.462Z,29.90
2018-06-15T11:55:31.827Z,30.30
2018-06-15T11:58:01.221Z,30.60
2018-06-15T12:00:30.559Z,30.40
2018-06-15T12:02:59.837Z,29.70
2018-06-15T12:05:29.122Z,29.10
2018-06-15T12:07:58.479Z,29.20
2018-06-15T12:10:28.830Z,29.00
2018-06-15T12:12:58.107Z,29.00
2018-06-15T12:15:27.376Z,29.00
2018-06-15T12:17:56.665Z,29.30
2018-06-15T12:20:25.983Z,29.60
2018-06-15T12:22:56.237Z,29.30
2018-06-15T12:25:25.550Z,29.40
2018-06-15T12:27:54.874Z,29.40
2018-06-15T12:30:24.171Z,28.20
2018-06-15T12:32:53.515Z,27.20
2018-06-15T12:35:22.741Z,27.60
2018-06-15T12:37:52.147Z,27.70
2018-06-15T12:40:21.354Z,27.50
2018-06-15T12:42:50.696Z,27.60
2018-06-15T12:45:19.941Z,27.70
2018-06-15T12:47:49.221Z,27.70
2018-06-15T12:50:18.491Z,27.90
2018-06-15T12:52:47.923Z,28.30
2018-06-15T12:55:17.217Z,28.60
2018-06-15T12:57:46.509Z,27.10
2018-06-15T13:00:15.756Z,26.80
2018-06-15T13:02:45.074Z,26.60
2018-06-15T13:05:14.285Z,25.90
2018-06-15T13:07:43.540Z,25.70
2018-06-15T13:10:12.824Z,24.90
2018-06-15T13:12:42.140Z,25.00
2018-06-15T13:15:11.404Z,25.00
2018-06-15T13:17:40.662Z,24.20
2018-06-15T13:20:09.919Z,24.10
2018-06-15T13:22:39.187Z,24.40
2018-06-15T13:25:08.431Z,25.10
2018-06-15T13:27:37.661Z,25.70
2018-06-15T13:30:07.027Z,26.20
2018-06-15T13:32:37.275Z,26.40
2018-06-15T13:35:06.654Z,26.50
2018-06-15T13:37:36.036Z,26.70
2018-06-15T13:40:05.370Z,27.10
2018-06-15T13:42:35.477Z,27.60
2018-06-15T13:45:04.816Z,27.90
2018-06-15T13:47:34.140Z,27.80
2018-06-15T13:50:03.455Z,28.10
2018-06-15T13:52:32.728Z,28.70
2018-06-15T13:55:01.962Z,29.20
2018-06-15T13:57:31.200Z,29.80
2018-06-15T14:00:00.452Z,29.80
2018-06-15T14:02:29.744Z,29.40
2018-06-15T14:04:59.028Z,29.00
2018-06-15T14:07:28.332Z,29.00
2018-06-15T14:09:57.584Z,28.20
2018-06-15T14:12:26.851Z,28.00
2018-06-15T14:14:56.216Z,27.60
2018-06-15T14:17:26.937Z,28.20
2018-06-15T14:19:56.707Z,29.10
2018-06-15T14:22:27.583Z,30.00
2018-06-15T14:24:57.548Z,30.80
2018-06-15T14:27:27.519Z,31.30
2018-06-15T14:29:58.519Z,30.90
2018-06-15T14:32:28.600Z,31.00
2018-06-15T14:34:58.473Z,32.10
2018-06-15T14:37:29.424Z,32.00
2018-06-15T14:39:59.301Z,32.70
2018-06-15T14:42:28.938Z,33.30
2018-06-15T14:44:58.855Z,34.10
2018-06-15T14:47:28.401Z,34.70
2018-06-15T14:49:58.082Z,35.20
2018-06-15T14:52:27.585Z,35.70
2018-06-15T14:54:56.977Z,36.10
2018-06-15T14:57:26.416Z,36.10
2018-06-15T14:59:55.749Z,34.80
2018-06-15T15:04:54.091Z,34.10
2018-06-15T15:07:23.415Z,34.40
2018-06-15T15:09:52.739Z,33.30
2018-06-15T15:12:22.060Z,33.20
2018-06-15T15:14:51.474Z,33.40
2018-06-15T15:17:20.814Z,33.20
2018-06-15T15:19:52.350Z,33.00
2018-06-15T15:22:22.298Z,33.00
2018-06-15T15:24:52.004Z,33.60
2018-06-15T15:27:21.616Z,33.40
2018-06-15T15:29:50.990Z,33.60
2018-06-15T15:32:21.535Z,34.00
2018-06-15T15:34:51.042Z,34.30
2018-06-15T15:37:29.751Z,34.20
2018-06-15T15:40:00.890Z,34.70
2018-06-15T15:42:30.582Z,34.90
2018-06-15T15:45:00.671Z,34.80
2018-06-15T15:47:35.059Z,35.20
2018-06-15T15:50:05.642Z,35.60
2018-06-15T15:52:35.268Z,35.70
2018-06-15T15:55:09.403Z,35.80
2018-06-15T15:57:39.127Z,35.60
2018-06-15T16:00:08.668Z,35.40
2018-06-15T16:02:38.125Z,35.50
2018-06-15T16:05:07.777Z,35.50
2018-06-15T16:07:37.770Z,35.70
2018-06-15T16:10:07.585Z,35.30
2018-06-15T16:12:37.606Z,35.30
2018-06-15T16:15:07.006Z,35.60
2018-06-15T16:17:36.531Z,36.10
2018-06-15T16:20:05.924Z,36.30
2018-06-15T16:22:35.207Z,36.40
2018-06-15T16:25:04.691Z,36.40
2018-06-15T16:27:34.096Z,36.20
2018-06-15T16:30:03.501Z,36.50
2018-06-15T16:32:32.810Z,36.70
2018-06-15T16:35:02.112Z,36.80
2018-06-15T16:37:31.479Z,37.10
2018-06-15T16:40:00.929Z,36.90
2018-06-15T16:42:30.420Z,37.00
2018-06-15T16:45:00.264Z,36.90
2018-06-15T16:47:30.105Z,37.40
2018-06-15T16:49:59.601Z,37.30
2018-06-15T16:52:29.114Z,37.50
2018-06-15T16:54:58.946Z,37.80
2018-06-15T16:57:29.689Z,38.10
2018-06-15T16:59:59.543Z,38.40
2018-06-15T17:02:29.408Z,38.70
2018-06-15T17:04:58.743Z,38.70
2018-06-15T17:09:57.414Z,39.00
2018-06-15T17:12:26.925Z,39.50
2018-06-15T17:14:56.448Z,39.80
2018-06-15T17:17:25.856Z,40.20
2018-06-15T17:19:55.290Z,40.30
2018-06-15T17:22:25.973Z,40.20
2018-06-15T17:24:55.740Z,40.30
2018-06-15T17:27:25.574Z,40.40
2018-06-15T17:29:55.028Z,40.30
2018-06-15T17:32:24.995Z,40.80
2018-06-15T17:34:55.008Z,40.90
2018-06-15T17:37:26.881Z,40.90
2018-06-15T17:39:56.623Z,41.00
2018-06-15T17:42:26.320Z,41.20
2018-06-15T17:47:31.547Z,41.10
2018-06-15T17:50:04.134Z,41.10
2018-06-15T17:52:33.785Z,41.20
2018-06-15T17:55:03.143Z,41.30
2018-06-15T17:57:35.948Z,41.40
2018-06-15T18:00:05.843Z,41.40
2018-06-15T18:02:35.653Z,41.40
2018-06-15T18:05:23.812Z,41.40
2018-06-15T18:08:02.758Z,41.70
2018-06-15T18:10:39.399Z,42.20
2018-06-15T18:13:22.188Z,42.50
2018-06-15T18:16:59.228Z,42.70
2018-06-15T18:22:12.656Z,43.10
2018-06-15T18:24:50.871Z,43.30
2018-06-15T18:27:29.621Z,43.40
2018-06-15T18:32:55.800Z,43.80
2018-06-15T18:35:27.105Z,43.60
2018-06-15T18:37:59.092Z,43.70
2018-06-15T18:40:31.737Z,43.70
2018-06-15T18:43:03.000Z,43.60
2018-06-15T18:45:43.783Z,43.90
2018-06-15T18:48:20.126Z,44.10
2018-06-15T18:50:50.339Z,44.10
2018-06-15T18:53:19.815Z,44.00
2018-06-15T18:58:18.403Z,44.10
2018-06-15T19:00:47.978Z,44.40
2018-06-15T19:03:17.469Z,44.40
2018-06-15T19:05:46.954Z,44.60
2018-06-15T19:08:16.857Z,44.70
2018-06-15T19:10:47.402Z,45.20
2018-06-15T19:13:17.938Z,45.10
2018-06-15T19:15:48.716Z,45.30
2018-06-15T19:18:18.888Z,46.60
2018-06-15T19:20:49.628Z,49.20
2018-06-15T19:23:19.649Z,50.10
2018-06-15T19:25:50.252Z,50.00
2018-06-15T19:28:20.972Z,50.10
2018-06-15T19:30:50.493Z,49.80
2018-06-15T19:33:19.913Z,49.60
2018-06-15T19:35:50.100Z,50.00
2018-06-15T19:38:20.325Z,50.00
2018-06-15T19:40:50.118Z,50.00
2018-06-15T19:43:19.881Z,50.30
2018-06-15T19:45:49.746Z,50.90
2018-06-15T19:48:19.727Z,51.00
2018-06-15T19:50:49.450Z,50.80
2018-06-15T19:53:19.446Z,51.50
2018-06-15T19:55:49.075Z,51.20
2018-06-15T19:58:19.224Z,51.20
2018-06-15T20:00:49.193Z,51.10
2018-06-15T20:03:25.622Z,52.80
2018-06-15T20:05:55.501Z,52.70
2018-06-15T20:08:25.011Z,52.60
2018-06-15T20:10:54.651Z,52.60
2018-06-15T20:13:24.449Z,52.60
2018-06-15T20:18:22.826Z,52.80
2018-06-15T20:23:21.704Z,53.60
2018-06-15T20:25:51.570Z,54.10
2018-06-15T20:28:21.191Z,54.10
2018-06-15T20:30:50.941Z,54.50
2018-06-15T20:33:20.839Z,54.70
2018-06-15T20:38:19.519Z,54.80
2018-06-15T20:40:49.135Z,55.10
2018-06-15T20:43:18.581Z,55.20
2018-06-15T20:45:47.987Z,55.70
2018-06-15T20:48:21.617Z,55.80
2018-06-15T20:50:51.149Z,55.50
2018-06-15T20:53:20.611Z,55.10
2018-06-15T20:55:49.952Z,55.30
2018-06-15T20:58:19.292Z,55.60
2018-06-15T21:00:49.088Z,55.70
2018-06-15T21:03:18.625Z,55.50
2018-06-15T21:05:48.397Z,55.40
2018-06-15T21:08:17.801Z,55.40
2018-06-15T21:10:47.141Z,55.50
2018-06-15T21:13:16.443Z,55.80
2018-06-15T21:15:45.817Z,56.10
2018-06-15T21:18:15.130Z,56.30
2018-06-15T21:20:44.530Z,56.30
2018-06-15T21:23:13.839Z,56.50
2018-06-15T21:25:43.229Z,56.70
2018-06-15T21:28:12.505Z,56.70
2018-06-15T21:30:41.792Z,57.10
2018-06-15T21:33:11.573Z,57.10
2018-06-15T21:35:40.934Z,57.20
2018-06-15T21:38:10.537Z,57.10
2018-06-15T21:40:39.866Z,57.10
2018-06-15T21:43:09.164Z,57.40
2018-06-15T21:45:38.482Z,57.50
2018-06-15T21:48:07.815Z,58.20
2018-06-15T21:50:37.088Z,58.60
2018-06-15T21:55:35.364Z,59.10
2018-06-15T21:58:04.700Z,59.40
2018-06-15T22:00:33.997Z,59.90
2018-06-15T22:03:03.336Z,60.10
2018-06-15T22:05:32.716Z,60.00
2018-06-15T22:08:02.014Z,60.10
2018-06-15T22:10:31.257Z,60.40
2018-06-15T22:13:00.645Z,60.60
2018-06-15T22:15:29.971Z,61.00
2018-06-15T22:17:59.260Z,61.20
2018-06-15T22:20:28.678Z,61.60
2018-06-15T22:22:57.998Z,61.60
2018-06-15T22:25:27.282Z,61.70
2018-06-15T22:27:56.548Z,61.80
2018-06-15T22:30:25.862Z,62.30
2018-06-15T22:35:23.999Z,62.70
2018-06-15T22:37:53.279Z,62.90
2018-06-15T22:40:22.551Z,63.00
2018-06-15T22:42:51.843Z,63.00
2018-06-15T22:45:21.103Z,63.40
2018-06-15T22:47:50.432Z,63.60
2018-06-15T22:50:19.751Z,63.90
2018-06-15T22:52:49.104Z,64.20
2018-06-15T22:55:18.352Z,64.10
2018-06-15T22:57:47.628Z,64.50
2018-06-15T23:00:17.781Z,64.60
2018-06-15T23:02:47.226Z,64.40
2018-06-15T23:05:16.493Z,64.70
2018-06-15T23:07:45.764Z,64.80
2018-06-15T23:10:15.039Z,65.30
2018-06-15T23:15:13.878Z,65.60
2018-06-15T23:17:43.116Z,65.90
2018-06-15T23:20:12.378Z,66.50
2018-06-15T23:22:41.603Z,66.80
2018-06-15T23:25:10.884Z,66.80
2018-06-15T23:27:40.139Z,66.80
2018-06-15T23:30:10.312Z,67.20
2018-06-15T23:32:39.556Z,67.20
2018-06-15T23:35:08.803Z,67.60
2018-06-15T23:37:38.113Z,68.20
2018-06-15T23:40:07.405Z,68.50
2018-06-15T23:42:36.662Z,68.70
2018-06-15T23:45:05.935Z,69.00
2018-06-15T23:47:35.247Z,69.10
2018-06-15T23:50:04.555Z,69.10
2018-06-15T23:52:33.780Z,69.20
2018-06-15T23:55:03.071Z,69.80
2018-06-15T23:57:32.342Z,70.40
